»·PEaware :: N53456 KSNS-KLGB

N53456 :: KSNS-KLGB

FLIGHT INFORMATION

Flight Status: Arrived
Operator: Privately registered:
United States
More flights under this callsign
Pilot: Daniel B. (28719)
Aircraft: CESSNA 172 SKYHAWK
(C172)
More flights by this aircraft type
Origin: KSNS Salinas Mun
United States
Destination: KLGB Long Beach
United States
More flights between these airports :: More routes between these airports
Route: BSR V27 GVO VTU LAX DODGR SLI
File this flight plan on PilotEdge
Remarks:
Altitude:
(Current/Filed)
11,000ft
Speed:
(Current/Filed)
115kts
Departed: 28-Dec-20 06:08 PM
Arrived: 28-Dec-20 08:22 PM
Distance/Time
Traveled:
240nm/2:14
Distance/Time
To Go:
Arrived

Flight Plot

Page will automatically refresh every two minutes.

Flight plan parsing failed; only flown route is shown


Map Options




Map Legend


Flown Route
Filed Route
Departure Airport
Arrival Airport
Navaid (VOR, NDB)
Fix

Horizontal Profiles

Position Reports

Time Latitude Longitude Heading Altitude Ground
Speed
28-Dec-20 17:51 36.661474 -121.616512 32 65ft 0kts
28-Dec-20 17:52 36.661474 -121.616512 32 65ft 0kts
28-Dec-20 17:52 36.661474 -121.616512 32 65ft 0kts
28-Dec-20 17:53 36.661474 -121.616512 32 65ft 0kts
28-Dec-20 17:55 36.661474 -121.616512 32 65ft 0kts
28-Dec-20 17:55 36.661474 -121.616512 32 65ft 0kts
28-Dec-20 17:56 36.661474 -121.616512 32 65ft 0kts
28-Dec-20 17:57 36.661474 -121.616512 32 65ft 0kts
28-Dec-20 17:58 36.661474 -121.616512 32 65ft 0kts
28-Dec-20 17:59 36.661474 -121.616512 32 65ft 0kts
28-Dec-20 18:00 36.661846 -121.616325 26 66ft 1kts
28-Dec-20 18:01 36.661748 -121.613268 98 69ft 11kts
28-Dec-20 18:02 36.661114 -121.606830 93 72ft 13kts
28-Dec-20 18:03 36.660661 -121.603621 93 73ft 21kts
28-Dec-20 18:04 36.660407 -121.598691 63 68ft 0kts
28-Dec-20 18:05 36.660407 -121.598691 64 68ft 0kts
28-Dec-20 18:06 36.660671 -121.598401 8 69ft 6kts
28-Dec-20 18:07 36.659457 -121.616370 217 616ft 83kts
28-Dec-20 18:08 36.635092 -121.620584 189 1524ft 93kts
28-Dec-20 18:09 36.609063 -121.624160 181 2428ft 95kts
28-Dec-20 18:10 36.582237 -121.625546 185 3264ft 98kts
28-Dec-20 18:11 36.554945 -121.627230 182 4062ft 99kts
28-Dec-20 18:12 36.527331 -121.628479 184 4821ft 100kts
28-Dec-20 18:13 36.499505 -121.629921 184 5529ft 101kts
28-Dec-20 18:14 36.471159 -121.630061 180 6214ft 101kts
28-Dec-20 18:15 36.442368 -121.628727 180 6825ft 104kts
28-Dec-20 18:16 36.413570 -121.632606 188 7406ft 105kts
28-Dec-20 18:17 36.383900 -121.632276 182 7958ft 107kts
28-Dec-20 18:18 36.353843 -121.631073 185 8470ft 109kts
28-Dec-20 18:19 36.323293 -121.634118 189 8954ft 110kts
28-Dec-20 18:20 36.292524 -121.637034 182 9405ft 112kts
28-Dec-20 18:21 36.261260 -121.640038 188 9839ft 113kts
28-Dec-20 18:22 36.229771 -121.642178 186 10255ft 114kts
28-Dec-20 18:23 36.198192 -121.643770 182 10772ft 115kts
28-Dec-20 18:24 36.165538 -121.633609 155 11006ft 135kts
28-Dec-20 18:25 36.129242 -121.615602 157 11009ft 146kts
28-Dec-20 18:26 36.092943 -121.595501 150 10971ft 139kts
28-Dec-20 18:27 36.056979 -121.578637 162 10999ft 139kts
28-Dec-20 18:28 36.020638 -121.562205 156 11018ft 139kts
28-Dec-20 18:29 35.985654 -121.541985 151 11030ft 138kts
28-Dec-20 18:30 35.949339 -121.525689 149 11005ft 141kts
28-Dec-20 18:31 35.914698 -121.503611 150 10986ft 140kts
28-Dec-20 18:32 35.879747 -121.482403 150 10954ft 139kts
28-Dec-20 18:33 35.843967 -121.464847 159 10961ft 137kts
28-Dec-20 18:34 35.808242 -121.448241 156 10968ft 137kts
28-Dec-20 18:35 35.772503 -121.431791 154 10973ft 137kts
28-Dec-20 18:36 35.737405 -121.413570 147 10978ft 136kts
28-Dec-20 18:37 35.703438 -121.392662 153 10992ft 137kts
28-Dec-20 18:38 35.668076 -121.374813 153 10980ft 138kts
28-Dec-20 18:39 35.634976 -121.352070 130 10957ft 135kts
28-Dec-20 18:40 35.609001 -121.319329 124 10956ft 132kts
28-Dec-20 18:41 35.585930 -121.284076 122 10956ft 132kts
28-Dec-20 18:42 35.563443 -121.248397 121 10956ft 132kts
28-Dec-20 18:43 35.540095 -121.213348 121 10955ft 132kts
28-Dec-20 18:44 35.516872 -121.178341 122 10969ft 131kts
28-Dec-20 18:45 35.494184 -121.143722 122 10986ft 129kts
28-Dec-20 18:46 35.472482 -121.108875 121 11002ft 127kts
28-Dec-20 18:47 35.451907 -121.073466 119 10965ft 127kts
28-Dec-20 18:48 35.430351 -121.039226 122 10945ft 126kts
28-Dec-20 18:49 35.407303 -121.006625 123 10927ft 125kts
28-Dec-20 18:50 35.386759 -120.972902 122 10946ft 122kts
28-Dec-20 18:51 35.365741 -120.940584 120 10973ft 121kts
28-Dec-20 18:52 35.345080 -120.907770 124 10986ft 121kts
28-Dec-20 18:53 35.324626 -120.875008 121 10995ft 121kts
28-Dec-20 18:54 35.303943 -120.841881 122 10980ft 122kts
28-Dec-20 18:55 35.282324 -120.809549 123 10970ft 123kts
28-Dec-20 18:56 35.262200 -120.775812 118 10950ft 121kts
28-Dec-20 18:57 35.238317 -120.746251 139 10939ft 125kts
28-Dec-20 18:58 35.210142 -120.721383 137 10953ft 124kts
28-Dec-20 18:59 35.183446 -120.694785 135 10962ft 124kts
28-Dec-20 19:00 35.156171 -120.668885 138 10978ft 124kts
28-Dec-20 19:01 35.128851 -120.643041 137 10992ft 124kts
28-Dec-20 19:02 35.101755 -120.616891 138 11003ft 124kts
28-Dec-20 19:03 35.074737 -120.590649 141 11016ft 125kts
28-Dec-20 19:04 35.047017 -120.564955 135 11005ft 125kts
28-Dec-20 19:05 35.019147 -120.538823 138 10977ft 128kts
28-Dec-20 19:06 34.989929 -120.513085 141 10973ft 131kts
28-Dec-20 19:07 34.960458 -120.486382 137 10988ft 136kts
28-Dec-20 19:08 34.929429 -120.457974 142 10968ft 141kts
28-Dec-20 19:09 34.897020 -120.429840 146 10950ft 144kts
28-Dec-20 19:10 34.864428 -120.401765 148 10967ft 143kts
28-Dec-20 19:11 34.832251 -120.372584 145 10968ft 144kts
28-Dec-20 19:12 34.800706 -120.342338 146 10969ft 144kts
28-Dec-20 19:13 34.768945 -120.312815 147 10954ft 144kts
28-Dec-20 19:14 34.736610 -120.284224 148 10942ft 143kts
28-Dec-20 19:15 34.704706 -120.255438 147 10963ft 143kts
28-Dec-20 19:16 34.672646 -120.226848 143 10968ft 143kts
28-Dec-20 19:17 34.642063 -120.195832 145 10989ft 143kts
28-Dec-20 19:18 34.610211 -120.166636 147 10960ft 145kts
28-Dec-20 19:19 34.577490 -120.138051 148 10931ft 144kts
28-Dec-20 19:20 34.545388 -120.109194 141 10947ft 144kts
28-Dec-20 19:21 34.522115 -120.069814 118 10976ft 146kts
28-Dec-20 19:23 34.504502 -120.025552 112 10983ft 145kts
28-Dec-20 19:24 34.486707 -119.981268 116 10989ft 146kts
28-Dec-20 19:25 34.468816 -119.936837 113 10972ft 146kts
28-Dec-20 19:26 34.450713 -119.892308 112 10967ft 146kts
28-Dec-20 19:27 34.433883 -119.847545 112 10946ft 148kts
28-Dec-20 19:28 34.415410 -119.803128 111 10941ft 147kts
28-Dec-20 19:29 34.396556 -119.759160 114 10929ft 147kts
28-Dec-20 19:30 34.378694 -119.714828 112 10945ft 145kts
28-Dec-20 19:31 34.359960 -119.671235 113 10964ft 146kts
28-Dec-20 19:32 34.342313 -119.626851 113 10970ft 147kts
28-Dec-20 19:33 34.326151 -119.581571 109 10979ft 146kts
28-Dec-20 19:34 34.308243 -119.537031 112 10979ft 147kts
28-Dec-20 19:35 34.291271 -119.492003 110 10974ft 147kts
28-Dec-20 19:36 34.273560 -119.447401 110 10989ft 147kts
28-Dec-20 19:37 34.258266 -119.401346 109 10980ft 147kts
28-Dec-20 19:38 34.240356 -119.356429 115 10960ft 149kts
28-Dec-20 19:38 34.224347 -119.319617 113 10937ft 148kts
28-Dec-20 19:40 34.202854 -119.267980 115 10953ft 146kts
28-Dec-20 19:41 34.183969 -119.224187 114 10966ft 146kts
28-Dec-20 19:41 34.169254 -119.187041 112 10971ft 147kts
28-Dec-20 19:42 34.151808 -119.142127 115 10962ft 147kts
28-Dec-20 19:43 34.133479 -119.097833 115 10957ft 148kts
28-Dec-20 19:44 34.115455 -119.053464 109 10967ft 147kts
28-Dec-20 19:45 34.101306 -119.006766 109 10938ft 148kts
28-Dec-20 19:46 34.087593 -118.960405 111 10985ft 146kts
28-Dec-20 19:47 34.072122 -118.914960 112 10976ft 149kts
28-Dec-20 19:48 34.060778 -118.867522 114 11005ft 145kts
28-Dec-20 19:49 34.047474 -118.821910 113 11020ft 141kts
28-Dec-20 19:50 34.033925 -118.777779 113 10981ft 138kts
28-Dec-20 19:51 34.018917 -118.735537 120 10961ft 136kts
28-Dec-20 19:52 34.006293 -118.692402 114 11013ft 134kts
28-Dec-20 19:53 33.995325 -118.649148 113 11017ft 138kts
28-Dec-20 19:54 33.982360 -118.605278 115 10976ft 138kts
28-Dec-20 19:55 33.970136 -118.561708 110 10969ft 137kts
28-Dec-20 19:56 33.958384 -118.525339 120 10463ft 122kts
28-Dec-20 19:57 33.947958 -118.494697 103 9983ft 122kts
28-Dec-20 19:58 33.942247 -118.467333 106 9594ft 121kts
28-Dec-20 19:59 33.934696 -118.441318 109 9242ft 120kts
28-Dec-20 20:00 33.931372 -118.416403 90 8913ft 120kts
28-Dec-20 20:01 33.931291 -118.392976 86 8630ft 118kts
28-Dec-20 20:02 33.930888 -118.370498 86 8338ft 119kts
28-Dec-20 20:03 33.931345 -118.348082 81 8040ft 118kts
28-Dec-20 20:04 33.932078 -118.326163 79 7697ft 110kts
28-Dec-20 20:05 33.932460 -118.306391 84 7306ft 100kts
28-Dec-20 20:06 33.931828 -118.287436 86 6937ft 95kts
28-Dec-20 20:07 33.930943 -118.269388 87 6589ft 93kts
28-Dec-20 20:08 33.926615 -118.252274 142 6173ft 103kts
28-Dec-20 20:09 33.910908 -118.243232 161 5632ft 105kts
28-Dec-20 20:11 33.893012 -118.245362 253 5068ft 86kts
28-Dec-20 20:11 33.887150 -118.258366 249 4749ft 90kts
28-Dec-20 20:12 33.879488 -118.274897 249 4361ft 94kts
28-Dec-20 20:13 33.866362 -118.289607 186 3916ft 104kts
28-Dec-20 20:14 33.849569 -118.279211 139 3354ft 96kts
28-Dec-20 20:15 33.836170 -118.260488 121 2696ft 105kts
28-Dec-20 20:16 33.825455 -118.238761 111 1901ft 100kts
28-Dec-20 20:17 33.822530 -118.216703 90 1288ft 81kts
28-Dec-20 20:18 33.822465 -118.197238 86 1021ft 88kts
28-Dec-20 20:19 33.822576 -118.179056 84 607ft 67kts
28-Dec-20 20:20 33.822677 -118.165433 85 233ft 57kts
28-Dec-20 20:21 33.822762 -118.154724 88 49ft 26kts
28-Dec-20 20:22 33.821986 -118.153720 189 47ft 0kts
28-Dec-20 20:23 33.821986 -118.153720 189 47ft 0kts
28-Dec-20 20:24 33.821665 -118.154728 270 46ft 18kts
28-Dec-20 20:25 33.820692 -118.157292 180 49ft 15kts
28-Dec-20 20:26 33.818258 -118.157311 179 48ft 7kts
28-Dec-20 20:27 33.816683 -118.157765 209 49ft 12kts
28-Dec-20 20:28 33.816500 -118.157837 179 49ft 0kts

Navigation Log

Ident Type
Flight plan parsing failed, navigation log unavailable